createdAt,value
2023-05-18T00:01:34.227Z,15.88
2023-05-18T00:04:02.334Z,15.85
2023-05-18T00:06:29.669Z,15.84
2023-05-18T00:08:56.907Z,15.83
2023-05-18T00:11:24.208Z,15.82
2023-05-18T00:13:51.439Z,15.79
2023-05-18T00:16:18.640Z,15.76
2023-05-18T00:18:46.416Z,15.71
2023-05-18T00:21:16.364Z,15.68
2023-05-18T00:23:49.696Z,15.62
2023-05-18T00:26:17.151Z,15.58
2023-05-18T00:28:46.096Z,15.58
2023-05-18T00:31:13.324Z,15.55
2023-05-18T00:33:41.358Z,15.53
2023-05-18T00:36:08.556Z,15.50
2023-05-18T00:38:35.714Z,15.44
2023-05-18T00:41:03.074Z,15.45
2023-05-18T00:43:30.230Z,15.42
2023-05-18T00:45:57.406Z,15.41
2023-05-18T00:48:24.584Z,15.39
2023-05-18T00:50:51.792Z,15.36
2023-05-18T00:53:18.951Z,15.34
2023-05-18T00:55:46.030Z,15.29
2023-05-18T00:58:14.341Z,15.29
2023-05-18T01:00:41.652Z,15.27
2023-05-18T01:03:11.375Z,15.25
2023-05-18T01:05:38.606Z,15.18
2023-05-18T01:08:05.820Z,15.17
2023-05-18T01:10:37.034Z,15.16
2023-05-18T01:13:15.813Z,15.16
2023-05-18T01:15:44.803Z,15.18
2023-05-18T01:18:22.047Z,15.17
2023-05-18T01:20:57.696Z,15.15
2023-05-18T01:23:52.578Z,15.17
2023-05-18T01:26:31.948Z,15.18
2023-05-18T01:29:07.221Z,15.18
2023-05-18T01:31:34.948Z,15.13
2023-05-18T01:34:03.277Z,15.14
2023-05-18T01:36:31.765Z,15.16
2023-05-18T01:39:01.991Z,15.18
2023-05-18T01:41:31.628Z,15.22
2023-05-18T01:44:04.789Z,15.23
2023-05-18T01:46:57.605Z,15.25
2023-05-18T01:49:31.991Z,15.25
2023-05-18T01:52:02.633Z,15.28
2023-05-18T01:54:32.396Z,15.29
2023-05-18T01:57:01.176Z,15.30
2023-05-18T01:59:29.081Z,15.33
2023-05-18T02:02:00.432Z,15.36
2023-05-18T02:04:28.425Z,15.39
2023-05-18T02:06:56.235Z,15.43
2023-05-18T02:09:23.893Z,15.46
2023-05-18T02:11:51.817Z,15.49
2023-05-18T02:14:19.020Z,15.49
2023-05-18T02:16:47.626Z,15.48
2023-05-18T02:19:15.333Z,15.51
2023-05-18T02:21:43.752Z,15.47
2023-05-18T02:24:12.679Z,15.53
2023-05-18T02:26:41.771Z,15.57
2023-05-18T02:29:11.939Z,15.60
2023-05-18T02:31:39.343Z,15.60
2023-05-18T02:34:07.141Z,15.66
2023-05-18T02:36:40.576Z,15.69
2023-05-18T02:39:08.022Z,15.75
2023-05-18T02:41:36.521Z,15.77
2023-05-18T02:44:05.806Z,15.80
2023-05-18T02:46:33.338Z,15.85
2023-05-18T02:49:00.818Z,15.88
2023-05-18T02:51:30.492Z,15.92
2023-05-18T02:53:58.204Z,15.95
2023-05-18T02:56:25.939Z,15.95
2023-05-18T02:59:10.049Z,16.01
2023-05-18T03:01:41.324Z,16.04
2023-05-18T03:04:09.126Z,16.07
2023-05-18T03:06:40.569Z,16.13
2023-05-18T03:09:08.686Z,16.15
2023-05-18T03:11:40.911Z,16.21
2023-05-18T03:14:09.266Z,16.27
2023-05-18T03:16:39.074Z,16.34
2023-05-18T03:19:11.116Z,16.45
2023-05-18T03:21:41.747Z,16.51
2023-05-18T03:24:09.685Z,16.58
2023-05-18T03:26:42.002Z,16.65
2023-05-18T03:29:09.470Z,16.70
2023-05-18T03:31:36.557Z,16.79
2023-05-18T03:34:03.902Z,16.86
2023-05-18T03:36:31.053Z,16.92
2023-05-18T03:38:58.344Z,16.96
2023-05-18T03:41:26.767Z,17.04
2023-05-18T03:43:54.959Z,17.06
2023-05-18T03:46:23.179Z,17.13
2023-05-18T03:48:50.974Z,17.18
2023-05-18T03:51:21.945Z,17.25
2023-05-18T03:53:49.103Z,17.30
2023-05-18T03:56:16.224Z,17.37
2023-05-18T03:58:44.557Z,17.43
2023-05-18T04:01:11.959Z,17.49
2023-05-18T04:03:40.909Z,17.55
2023-05-18T04:06:10.408Z,17.63
2023-05-18T04:08:38.347Z,17.70
2023-05-18T04:11:07.031Z,17.77
2023-05-18T04:13:35.245Z,17.85
2023-05-18T04:16:03.800Z,17.92
2023-05-18T04:18:32.393Z,17.98
2023-05-18T04:21:00.527Z,18.05
2023-05-18T04:23:28.887Z,18.18
2023-05-18T04:25:56.719Z,18.24
2023-05-18T04:28:24.104Z,18.35
2023-05-18T04:30:52.020Z,18.43
2023-05-18T04:33:20.697Z,18.49
2023-05-18T04:35:48.551Z,18.58
2023-05-18T04:38:16.843Z,18.68
2023-05-18T04:40:44.834Z,18.77
2023-05-18T04:43:13.624Z,18.84
2023-05-18T04:45:40.744Z,18.94
2023-05-18T04:48:08.268Z,18.99
2023-05-18T04:50:37.350Z,19.09
2023-05-18T04:53:07.788Z,19.13
2023-05-18T04:55:35.699Z,19.24
2023-05-18T04:58:10.611Z,19.29
2023-05-18T05:00:38.676Z,19.34
2023-05-18T05:03:06.476Z,19.44
2023-05-18T05:05:34.819Z,19.51
2023-05-18T05:08:04.850Z,19.58
2023-05-18T05:10:31.916Z,19.65
2023-05-18T05:12:59.872Z,19.76
2023-05-18T05:15:27.381Z,19.84
2023-05-18T05:17:54.836Z,19.92
2023-05-18T05:20:22.700Z,19.99
2023-05-18T05:22:49.847Z,20.07
2023-05-18T05:25:22.513Z,20.17
2023-05-18T05:27:51.140Z,20.24
2023-05-18T05:30:20.860Z,20.30
2023-05-18T05:32:48.158Z,20.32
2023-05-18T05:35:15.570Z,20.40
2023-05-18T05:37:42.979Z,20.47
2023-05-18T05:40:10.926Z,20.53
2023-05-18T05:42:42.666Z,20.59
2023-05-18T05:45:10.332Z,20.62
2023-05-18T05:48:03.401Z,20.70
2023-05-18T05:50:32.514Z,20.78
2023-05-18T05:53:01.859Z,20.85
2023-05-18T05:55:33.131Z,20.93
2023-05-18T05:58:00.638Z,20.98
2023-05-18T06:00:28.912Z,21.00
2023-05-18T06:03:02.093Z,21.10
2023-05-18T06:05:42.455Z,21.18
2023-05-18T06:08:12.385Z,21.23
2023-05-18T06:10:41.384Z,21.30
2023-05-18T06:13:09.265Z,21.41
2023-05-18T06:15:43.934Z,21.45
2023-05-18T06:18:13.445Z,21.51
2023-05-18T06:20:41.005Z,21.56
2023-05-18T06:23:08.089Z,21.63
2023-05-18T06:25:53.439Z,21.71
2023-05-18T06:28:44.044Z,21.79
2023-05-18T06:31:33.609Z,21.86
2023-05-18T06:34:12.694Z,21.94
2023-05-18T06:36:40.816Z,22.00
2023-05-18T06:39:07.909Z,22.06
2023-05-18T06:41:35.388Z,22.10
2023-05-18T06:44:03.214Z,22.11
2023-05-18T06:46:35.869Z,22.19
2023-05-18T06:49:08.569Z,22.22
2023-05-18T06:51:35.595Z,22.27
2023-05-18T06:54:02.756Z,22.30
2023-05-18T06:56:30.021Z,22.34
2023-05-18T06:58:58.330Z,22.39
2023-05-18T07:01:27.458Z,22.43
2023-05-18T07:06:43.054Z,22.49
2023-05-18T07:09:10.184Z,22.55
2023-05-18T07:15:36.779Z,22.59
2023-05-18T07:18:04.399Z,22.65
2023-05-18T07:20:31.611Z,22.68
2023-05-18T07:22:58.847Z,22.72
2023-05-18T07:25:26.360Z,22.73
2023-05-18T07:27:54.850Z,22.68
2023-05-18T07:30:22.856Z,22.63
2023-05-18T07:32:53.867Z,22.67
2023-05-18T07:35:22.132Z,22.72
2023-05-18T07:37:50.409Z,22.78
2023-05-18T07:40:17.625Z,22.83
2023-05-18T07:42:44.910Z,22.91
2023-05-18T07:45:12.913Z,23.03
2023-05-18T07:47:40.356Z,23.17
2023-05-18T07:50:08.222Z,23.25
2023-05-18T07:52:35.369Z,23.35
2023-05-18T07:55:02.993Z,23.46
2023-05-18T07:57:31.709Z,23.57
2023-05-18T07:59:58.746Z,23.68
2023-05-18T08:02:26.115Z,23.79
2023-05-18T08:04:56.805Z,23.98
2023-05-18T08:07:26.626Z,24.16
2023-05-18T08:09:53.680Z,24.35
2023-05-18T08:12:21.128Z,24.47
2023-05-18T08:14:50.624Z,24.52
2023-05-18T08:17:19.781Z,24.54
2023-05-18T08:19:47.976Z,24.49
2023-05-18T08:22:15.856Z,24.43
2023-05-18T08:24:43.177Z,24.40
2023-05-18T08:27:11.470Z,24.47
2023-05-18T08:29:38.733Z,24.56
2023-05-18T08:32:07.569Z,24.64
2023-05-18T08:34:35.273Z,24.64
2023-05-18T08:37:02.870Z,24.66
2023-05-18T08:39:32.187Z,24.68
2023-05-18T08:42:16.859Z,24.74
2023-05-18T08:44:46.660Z,24.81
2023-05-18T08:47:15.457Z,24.84
2023-05-18T08:49:42.977Z,24.91
2023-05-18T08:52:18.148Z,25.02
2023-05-18T08:54:47.278Z,25.17
2023-05-18T08:57:16.905Z,25.33
2023-05-18T08:59:45.149Z,25.49
2023-05-18T09:02:13.739Z,25.65
2023-05-18T09:04:42.686Z,25.76
2023-05-18T09:07:11.144Z,25.86
2023-05-18T09:09:40.880Z,25.94
2023-05-18T09:12:09.865Z,26.07
2023-05-18T09:14:37.122Z,26.27
2023-05-18T09:17:04.496Z,26.48
2023-05-18T09:19:31.659Z,26.66
2023-05-18T09:21:58.711Z,26.79
2023-05-18T09:24:26.703Z,26.92
2023-05-18T09:26:54.347Z,26.93
2023-05-18T09:29:22.676Z,26.90
2023-05-18T09:31:50.308Z,26.85
2023-05-18T09:34:19.526Z,26.83
2023-05-18T09:36:53.123Z,26.89
2023-05-18T09:39:20.278Z,26.94
2023-05-18T09:42:05.167Z,27.00
2023-05-18T09:44:35.813Z,26.94
2023-05-18T09:47:12.219Z,27.01
2023-05-18T09:49:41.664Z,27.13
2023-05-18T09:52:09.466Z,27.30
2023-05-18T09:54:40.133Z,27.34
2023-05-18T09:57:10.712Z,27.23
2023-05-18T09:59:39.061Z,27.07
2023-05-18T10:02:08.588Z,26.89
2023-05-18T10:04:41.384Z,26.71
2023-05-18T10:07:16.886Z,26.51
2023-05-18T10:09:45.973Z,26.36
2023-05-18T10:12:15.050Z,26.28
2023-05-18T10:14:43.987Z,26.20
2023-05-18T10:17:15.699Z,26.19
2023-05-18T10:19:44.810Z,26.16
2023-05-18T10:22:15.875Z,26.19
2023-05-18T10:24:47.091Z,26.38
2023-05-18T10:27:14.932Z,26.60
2023-05-18T10:29:43.026Z,26.86
2023-05-18T10:32:12.980Z,27.05
2023-05-18T10:34:43.010Z,27.16
2023-05-18T10:37:12.125Z,27.21
2023-05-18T10:39:45.825Z,27.25
2023-05-18T10:42:16.289Z,27.26
2023-05-18T10:44:44.972Z,27.31
2023-05-18T10:47:13.909Z,27.28
2023-05-18T10:49:43.422Z,27.13
2023-05-18T10:52:12.934Z,26.86
2023-05-18T10:54:41.991Z,26.66
2023-05-18T10:57:13.879Z,26.73
2023-05-18T10:59:48.227Z,26.96
2023-05-18T11:02:21.259Z,27.23
2023-05-18T11:04:50.162Z,27.52
2023-05-18T11:07:18.239Z,27.64
2023-05-18T11:09:45.164Z,27.75
2023-05-18T11:12:20.421Z,27.83
2023-05-18T11:14:50.485Z,27.72
2023-05-18T11:17:29.728Z,27.61
2023-05-18T11:20:06.471Z,27.66
2023-05-18T11:22:45.076Z,27.72
2023-05-18T11:25:27.356Z,27.74
2023-05-18T11:27:57.851Z,27.69
2023-05-18T11:30:40.745Z,27.75
2023-05-18T11:33:26.252Z,27.90
2023-05-18T11:36:27.111Z,28.26
2023-05-18T11:39:04.788Z,28.49
2023-05-18T11:41:35.816Z,28.80
2023-05-18T11:44:12.028Z,29.19
2023-05-18T11:46:53.684Z,29.71
2023-05-18T11:49:23.744Z,30.32
2023-05-18T11:52:13.498Z,31.04
2023-05-18T11:54:52.378Z,31.48
2023-05-18T11:57:43.042Z,31.56
2023-05-18T12:00:12.202Z,30.90
2023-05-18T12:02:43.963Z,30.07
2023-05-18T12:05:11.757Z,29.35
2023-05-18T12:07:42.765Z,28.93
2023-05-18T12:10:16.324Z,28.72
2023-05-18T12:12:44.048Z,28.57
2023-05-18T12:15:16.586Z,28.50
2023-05-18T12:17:46.923Z,28.43
2023-05-18T12:20:15.140Z,28.40
2023-05-18T12:22:44.420Z,28.45
2023-05-18T12:25:12.066Z,29.16
2023-05-18T12:27:48.803Z,30.59
2023-05-18T12:30:15.874Z,32.16
2023-05-18T12:32:47.701Z,33.55
2023-05-18T12:35:15.186Z,34.71
2023-05-18T12:37:45.169Z,35.76
2023-05-18T12:40:17.055Z,36.64
2023-05-18T12:43:01.250Z,37.33
2023-05-18T12:45:32.986Z,37.28
2023-05-18T12:48:11.555Z,37.51
2023-05-18T12:50:47.396Z,38.05
2023-05-18T12:53:14.715Z,38.31
2023-05-18T12:55:41.704Z,38.35
2023-05-18T12:58:18.501Z,37.83
2023-05-18T13:00:50.071Z,37.46
2023-05-18T13:03:20.361Z,37.25
2023-05-18T13:06:07.271Z,37.23
2023-05-18T13:08:35.321Z,37.10
2023-05-18T13:13:38.928Z,36.93
2023-05-18T13:16:15.676Z,35.79
2023-05-18T13:18:46.999Z,34.32
2023-05-18T13:21:14.038Z,33.10
2023-05-18T13:23:40.903Z,32.68
2023-05-18T13:26:08.005Z,33.38
2023-05-18T13:28:35.961Z,33.65
2023-05-18T13:31:03.098Z,33.42
2023-05-18T13:33:30.055Z,33.38
2023-05-18T13:35:57.202Z,32.90
2023-05-18T13:38:24.244Z,32.59
2023-05-18T13:40:51.355Z,32.22
2023-05-18T13:43:18.302Z,31.65
2023-05-18T13:45:45.400Z,30.99
2023-05-18T13:48:12.707Z,30.30
2023-05-18T13:50:40.078Z,29.70
2023-05-18T13:53:07.274Z,29.19
2023-05-18T13:55:38.073Z,28.81
2023-05-18T13:58:05.491Z,28.53
2023-05-18T14:00:36.546Z,28.31
2023-05-18T14:03:04.334Z,28.16
2023-05-18T14:05:31.407Z,28.00
2023-05-18T14:07:58.630Z,27.89
2023-05-18T14:10:27.030Z,27.75
2023-05-18T14:12:56.754Z,27.59
2023-05-18T14:15:23.968Z,27.44
2023-05-18T14:17:51.265Z,27.80
2023-05-18T14:20:19.825Z,28.81
2023-05-18T14:22:49.628Z,29.89
2023-05-18T14:25:17.192Z,30.69
2023-05-18T14:27:44.493Z,31.37
2023-05-18T14:30:11.884Z,31.86
2023-05-18T14:32:38.942Z,32.32
2023-05-18T14:35:06.634Z,32.83
2023-05-18T14:37:33.646Z,32.96
2023-05-18T14:40:00.693Z,32.95
2023-05-18T14:42:27.713Z,32.99
2023-05-18T14:44:55.172Z,33.09
2023-05-18T14:47:22.677Z,33.28
2023-05-18T14:49:49.832Z,33.47
2023-05-18T14:52:16.981Z,33.44
2023-05-18T14:54:43.999Z,33.24
2023-05-18T14:57:11.431Z,33.06
2023-05-18T14:59:38.698Z,33.04
2023-05-18T15:02:07.715Z,32.79
2023-05-18T15:04:36.192Z,32.32
2023-05-18T15:07:03.400Z,32.18
2023-05-18T15:09:30.413Z,32.07
2023-05-18T15:11:57.471Z,31.90
2023-05-18T15:14:24.522Z,31.66
2023-05-18T15:16:51.868Z,31.48
2023-05-18T15:19:19.420Z,31.07
2023-05-18T15:21:46.507Z,30.83
2023-05-18T15:24:13.583Z,30.72
2023-05-18T15:26:40.980Z,30.76
2023-05-18T15:29:08.057Z,30.77
2023-05-18T15:31:37.901Z,30.47
2023-05-18T15:34:04.955Z,30.18
2023-05-18T15:36:32.426Z,29.82
2023-05-18T15:38:59.606Z,29.49
2023-05-18T15:41:33.029Z,29.24
2023-05-18T15:44:01.911Z,29.03
2023-05-18T15:46:32.186Z,28.85
2023-05-18T15:48:59.289Z,28.62
2023-05-18T15:51:26.401Z,28.37
2023-05-18T15:53:53.789Z,28.22
2023-05-18T15:56:22.049Z,27.97
2023-05-18T15:58:49.141Z,27.43
2023-05-18T16:01:16.179Z,26.78
2023-05-18T16:03:46.231Z,26.03
2023-05-18T16:06:13.461Z,25.40
2023-05-18T16:08:40.503Z,24.91
2023-05-18T16:11:10.069Z,24.57
2023-05-18T16:13:37.017Z,24.35
2023-05-18T16:16:04.208Z,24.08
2023-05-18T16:18:31.551Z,23.79
2023-05-18T16:20:58.947Z,23.49
2023-05-18T16:23:25.981Z,23.28
2023-05-18T16:25:53.009Z,23.15
2023-05-18T16:28:20.114Z,22.98
2023-05-18T16:30:47.129Z,22.73
2023-05-18T16:33:14.209Z,22.41
2023-05-18T16:35:41.460Z,22.11
2023-05-18T16:38:13.460Z,21.85
2023-05-18T16:40:40.482Z,21.59
2023-05-18T16:43:07.739Z,21.36
2023-05-18T16:45:37.456Z,21.15
2023-05-18T16:48:04.633Z,20.92
2023-05-18T16:50:31.992Z,20.73
2023-05-18T16:53:02.517Z,20.59
2023-05-18T16:55:29.431Z,20.44
2023-05-18T16:57:56.422Z,20.29
2023-05-18T17:00:23.709Z,20.18
2023-05-18T17:02:54.006Z,20.07
2023-05-18T17:05:24.787Z,19.94
2023-05-18T17:07:55.544Z,19.82
2023-05-18T17:10:25.439Z,19.71
2023-05-18T17:12:52.504Z,19.61
2023-05-18T17:15:19.645Z,19.49
2023-05-18T17:17:55.127Z,19.37
2023-05-18T17:20:23.092Z,19.24
2023-05-18T17:22:50.293Z,19.10
2023-05-18T17:25:17.418Z,18.98
2023-05-18T17:27:44.395Z,18.88
2023-05-18T17:30:11.884Z,18.77
2023-05-18T17:32:39.777Z,18.68
2023-05-18T17:35:13.302Z,18.59
2023-05-18T17:37:41.479Z,18.46
2023-05-18T17:40:09.997Z,18.41
2023-05-18T17:42:37.020Z,18.32
2023-05-18T17:45:04.377Z,18.24
2023-05-18T17:47:31.343Z,18.17
2023-05-18T17:49:58.322Z,18.11
2023-05-18T17:52:25.360Z,18.02
2023-05-18T17:54:57.290Z,17.95
2023-05-18T17:57:24.384Z,17.90
2023-05-18T17:59:51.573Z,17.88
2023-05-18T18:02:18.648Z,17.82
2023-05-18T18:04:45.927Z,17.72
2023-05-18T18:07:13.039Z,17.73
2023-05-18T18:09:41.092Z,17.67
2023-05-18T18:12:08.720Z,17.63
2023-05-18T18:14:35.846Z,17.58
2023-05-18T18:17:03.578Z,17.54
2023-05-18T18:19:31.419Z,17.47
2023-05-18T18:21:58.812Z,17.46
2023-05-18T18:24:25.953Z,17.42
2023-05-18T18:26:53.284Z,17.38
2023-05-18T18:29:20.445Z,17.33
2023-05-18T18:31:47.906Z,17.27
2023-05-18T18:34:15.252Z,17.24
2023-05-18T18:36:44.500Z,17.23
2023-05-18T18:39:11.620Z,17.20
2023-05-18T18:41:38.724Z,17.16
2023-05-18T18:44:05.928Z,17.14
2023-05-18T18:46:33.469Z,17.12
2023-05-18T18:49:00.883Z,17.12
2023-05-18T18:51:28.131Z,17.05
2023-05-18T18:53:55.201Z,17.06
2023-05-18T18:56:24.261Z,17.03
2023-05-18T18:58:51.534Z,17.02
2023-05-18T19:01:18.863Z,17.01
2023-05-18T19:03:46.127Z,16.96
2023-05-18T19:06:17.585Z,16.94
2023-05-18T19:08:44.783Z,16.92
2023-05-18T19:11:12.006Z,16.88
2023-05-18T19:13:39.030Z,16.86
2023-05-18T19:16:06.613Z,16.83
2023-05-18T19:18:33.910Z,16.78
2023-05-18T19:21:01.620Z,16.78
2023-05-18T19:23:29.098Z,16.72
2023-05-18T19:25:56.474Z,16.71
2023-05-18T19:28:23.695Z,16.69
2023-05-18T19:30:50.778Z,16.65
2023-05-18T19:33:18.219Z,16.60
2023-05-18T19:35:45.862Z,16.59
2023-05-18T19:38:13.088Z,16.57
2023-05-18T19:40:40.132Z,16.54
2023-05-18T19:43:07.508Z,16.52
2023-05-18T19:45:35.036Z,16.49
2023-05-18T19:48:02.557Z,16.46
2023-05-18T19:50:30.053Z,16.40
2023-05-18T19:52:57.125Z,16.40
2023-05-18T19:55:24.466Z,16.36
2023-05-18T19:57:51.468Z,16.34
2023-05-18T20:00:18.641Z,16.31
2023-05-18T20:02:45.778Z,16.31
2023-05-18T20:05:13.162Z,16.27
2023-05-18T20:07:41.142Z,16.26
2023-05-18T20:10:08.472Z,16.21
2023-05-18T20:12:35.915Z,16.17
2023-05-18T20:15:03.713Z,16.17
2023-05-18T20:17:41.239Z,16.15
2023-05-18T20:20:08.946Z,16.11
2023-05-18T20:22:36.174Z,16.09
2023-05-18T20:25:05.627Z,16.05
2023-05-18T20:27:33.208Z,16.00
2023-05-18T20:30:00.840Z,15.99
2023-05-18T20:32:29.083Z,15.96
2023-05-18T20:34:56.349Z,15.92
2023-05-18T20:37:25.378Z,15.88
2023-05-18T20:39:54.383Z,15.88
2023-05-18T20:42:22.432Z,15.84
2023-05-18T20:44:53.077Z,15.82
2023-05-18T20:47:20.942Z,15.80
2023-05-18T20:49:48.763Z,15.78
2023-05-18T20:52:16.784Z,15.77
2023-05-18T20:54:44.277Z,15.75
2023-05-18T20:57:12.034Z,15.69
2023-05-18T20:59:39.196Z,15.69
2023-05-18T21:02:07.156Z,15.69
2023-05-18T21:04:34.557Z,15.66
2023-05-18T21:07:01.833Z,15.62
2023-05-18T21:09:31.402Z,15.62
2023-05-18T21:11:58.824Z,15.60
2023-05-18T21:14:26.161Z,15.62
2023-05-18T21:16:53.469Z,15.59
2023-05-18T21:19:20.991Z,15.61
2023-05-18T21:21:48.375Z,15.62
2023-05-18T21:24:15.682Z,15.58
2023-05-18T21:26:43.070Z,15.63
2023-05-18T21:29:10.086Z,15.63
2023-05-18T21:31:37.411Z,15.63
2023-05-18T21:34:04.508Z,15.65
2023-05-18T21:36:34.420Z,15.62
2023-05-18T21:39:05.980Z,15.67
2023-05-18T21:41:35.371Z,15.65
2023-05-18T21:44:03.431Z,15.65
2023-05-18T21:46:30.771Z,15.68
2023-05-18T21:48:58.066Z,15.67
2023-05-18T21:51:25.598Z,15.66
2023-05-18T21:53:52.802Z,15.67
2023-05-18T21:56:20.199Z,15.70
2023-05-18T21:58:47.340Z,15.70
2023-05-18T22:01:19.703Z,15.69
2023-05-18T22:03:48.138Z,15.68
2023-05-18T22:06:15.788Z,15.69
2023-05-18T22:08:43.224Z,15.70
2023-05-18T22:11:11.899Z,15.70
2023-05-18T22:13:39.433Z,15.70
2023-05-18T22:16:06.733Z,15.72
2023-05-18T22:18:33.912Z,15.73
2023-05-18T22:21:01.202Z,15.74
2023-05-18T22:23:28.244Z,15.74
2023-05-18T22:25:55.272Z,15.76
2023-05-18T22:28:22.538Z,15.76
2023-05-18T22:30:52.971Z,15.75
2023-05-18T22:33:21.427Z,15.77
2023-05-18T22:35:48.553Z,15.78
2023-05-18T22:38:16.917Z,15.78
2023-05-18T22:40:45.608Z,15.83
2023-05-18T22:43:12.901Z,15.86
2023-05-18T22:45:40.099Z,15.89
2023-05-18T22:48:07.292Z,15.93
2023-05-18T22:50:35.170Z,15.93
2023-05-18T22:53:02.656Z,15.94
2023-05-18T22:55:30.126Z,15.92
2023-05-18T22:57:57.473Z,15.91
2023-05-18T23:00:24.604Z,15.88
2023-05-18T23:02:53.073Z,15.90
2023-05-18T23:05:20.612Z,15.89
2023-05-18T23:07:47.795Z,15.84
2023-05-18T23:10:15.070Z,15.86
2023-05-18T23:12:42.195Z,15.87
2023-05-18T23:15:11.949Z,15.86
2023-05-18T23:17:42.825Z,15.83
2023-05-18T23:20:11.623Z,15.87
2023-05-18T23:22:38.924Z,15.85
2023-05-18T23:25:08.798Z,15.85
2023-05-18T23:27:36.839Z,15.86
2023-05-18T23:30:04.554Z,15.84
2023-05-18T23:32:36.060Z,15.80
2023-05-18T23:35:05.049Z,15.73
2023-05-18T23:37:35.302Z,15.68
2023-05-18T23:40:03.004Z,15.59
2023-05-18T23:42:33.743Z,15.52
2023-05-18T23:45:01.469Z,15.47
2023-05-18T23:47:33.987Z,15.43
2023-05-18T23:50:01.368Z,15.38
2023-05-18T23:52:32.844Z,15.38
2023-05-18T23:55:00.599Z,15.36
2023-05-18T23:57:28.112Z,15.30
2023-05-18T23:59:56.015Z,15.32
